Lincoln, IL

8:36 PM CDT on August 17, 2019 (GMT -0500)
Lincoln

Weather History for KAAA - July, 2019

Change the Weather History Date:

Friday, July 19, 2019

  Actual Average (KSPI) Record (KSPI)
Temperature  
Mean Temperature 86 °F -  
Max Temperature 94 °F 88 °F 101 °F (1980)
Min Temperature 79 °F 68 °F 54 °F (1909)
Cooling Degree Days 22    
Growing Degree Days 36 (Base 50)    
Moisture  
Dew Point 78 °F    
Average Humidity 75    
Maximum Humidity 88    
Minimum Humidity 60    
Precipitation  
Precipitation 0.00 in - - ()
Sea Level Pressure  
Sea Level Pressure 29.88 in    
Wind  
Wind Speed 7 mph (SSW)    
Max Wind Speed 13 mph    
Max Gust Speed 21 mph    
Visibility 10 miles    
Events      
Averages and records for this station are not official NWS values.
T = Trace of Precipitation, MM = Missing Value Source: NWS Daily Summary

Daily Weather History Graph

Daily Weather History Graph

Search for Another Location

Airport or City:

Astronomy

Jul. 19, 2019 Rise Set
Actual Time 5:43 AM CDT 8:23 PM CDT
Civil Twilight 5:12 AM CDT 8:54 PM CDT
Nautical Twilight 4:32 AM CDT 9:34 PM CDT
Astronomical Twilight 3:47 AM CDT 10:18 PM CDT
Moon 10:21 PM CDT (7/19) 8:10 AM CDT (7/19)
Length of Visible Light 15h 42m
Length of Day
14h 39m
Waning Gibbous, 93% of the Moon is Illuminated
Jul 19
Waning Gibbous
Jul 24
Last Quarter
Jul 31
New
Aug 7
First Quarter
Aug 15
Full

Hourly Weather History & Observations

Time (CDT) Temp. Heat Index Dew Point Humidity Pressure Visibility Wind Dir Wind Speed Gust Speed Precip Events Conditions
12:15 AM 83.3 °F 94.2 °F 78.8 °F 86% 29.85 in 10.0 mi South 6.9 mph - N/A   Clear
12:30 AM 82.9 °F 93.1 °F 78.4 °F 86% 29.85 in 10.0 mi South 8.1 mph - N/A   Clear
12:55 AM 83.1 °F 93.3 °F 78.1 °F 85% 29.85 in 10.0 mi South 5.8 mph - N/A   Clear
1:15 AM 82.9 °F 92.8 °F 77.9 °F 85% 29.85 in 10.0 mi South 6.9 mph - N/A   Clear
1:35 AM 82.2 °F 91.3 °F 77.9 °F 87% 29.85 in 10.0 mi South 4.6 mph - N/A   Clear
1:55 AM 82.8 °F 91.9 °F 77.4 °F 84% 29.86 in 10.0 mi SSW 5.8 mph - N/A   Clear
2:15 AM 81.9 °F 90.2 °F 77.5 °F 87% 29.85 in 10.0 mi South 5.8 mph - N/A   Clear
2:35 AM 81.5 °F 89.2 °F 77.2 °F 87% 29.86 in 10.0 mi SSW 5.8 mph - N/A   Clear
2:55 AM 82.0 °F 90.2 °F 77.2 °F 85% 29.85 in 10.0 mi SSW 4.6 mph - N/A   Clear
3:15 AM 81.1 °F 88.4 °F 77.2 °F 88% 29.85 in 10.0 mi SSW 4.6 mph - N/A   Clear
3:35 AM 81.5 °F 89.2 °F 77.2 °F 87% 29.85 in 10.0 mi SSW 5.8 mph - N/A   Clear
3:55 AM 81.1 °F 88.2 °F 77.0 °F 87% 29.85 in 10.0 mi SSW 4.6 mph - N/A   Clear
4:15 AM 81.5 °F 88.7 °F 76.6 °F 85% 29.86 in 10.0 mi SSW 4.6 mph - N/A   Clear
4:35 AM 81.1 °F 88.0 °F 76.5 °F 86% 29.86 in 10.0 mi SSW 3.5 mph - N/A   Clear
4:55 AM 81.0 °F 87.5 °F 76.3 °F 86% 29.87 in 10.0 mi Calm Calm - N/A   Clear
5:15 AM 80.1 °F 85.5 °F 76.3 °F 88% 29.88 in 10.0 mi SSW 4.6 mph - N/A   Clear
5:35 AM 80.1 °F 85.4 °F 75.9 °F 87% 29.88 in 10.0 mi SSW 5.8 mph - N/A   Clear
5:55 AM 79.9 °F - 75.6 °F 87% 29.88 in 10.0 mi SSW 3.5 mph - N/A   Clear
6:35 AM 80.2 °F 85.7 °F 75.7 °F 86% 29.89 in 10.0 mi SSW 4.6 mph - N/A   Clear
6:55 AM 80.8 °F 87.1 °F 76.1 °F 86% 29.89 in 10.0 mi South 3.5 mph - N/A   Clear
7:15 AM 81.5 °F 88.5 °F 76.1 °F 84% 29.90 in 10.0 mi SSW 5.8 mph - N/A   Clear
7:35 AM 82.4 °F 90.1 °F 76.1 °F 81% 29.90 in 10.0 mi SSW 4.6 mph - N/A   Clear
7:55 AM 83.5 °F 92.2 °F 76.3 °F 79% 29.91 in 10.0 mi SW 5.8 mph - N/A   Clear
8:15 AM 84.4 °F 93.5 °F 76.1 °F 76% 29.91 in 10.0 mi SSW 5.8 mph - N/A   Clear
8:35 AM 84.7 °F 94.0 °F 76.1 °F 75% 29.91 in 10.0 mi SW 6.9 mph - N/A   Clear
8:55 AM 85.8 °F 95.9 °F 76.3 °F 73% 29.91 in 10.0 mi SW 6.9 mph - N/A   Clear
9:15 AM 86.2 °F 96.4 °F 76.3 °F 72% 29.90 in 10.0 mi SW 9.2 mph - N/A   Clear
9:35 AM 86.7 °F 97.8 °F 76.6 °F 72% 29.90 in 10.0 mi SW 4.6 mph - N/A   Clear
9:55 AM 87.4 °F 98.7 °F 76.6 °F 70% 29.90 in 10.0 mi SW 5.8 mph - N/A   Clear
10:15 AM 87.8 °F 99.7 °F 77.0 °F 70% 29.89 in 10.0 mi SW 8.1 mph - N/A   Clear
10:35 AM 88.7 °F 101.0 °F 77.0 °F 68% 29.90 in 10.0 mi SW 8.1 mph - N/A   Clear
10:55 AM 88.9 °F 101.5 °F 77.2 °F 68% 29.90 in 10.0 mi South 9.2 mph - N/A   Clear
11:15 AM 90.0 °F 103.2 °F 77.4 °F 66% 29.91 in 10.0 mi SW 6.9 mph - N/A   Clear
11:35 AM 90.3 °F 104.8 °F 78.1 °F 67% 29.90 in 10.0 mi SSW 5.8 mph - N/A   Scattered Clouds
11:55 AM 90.7 °F 105.2 °F 77.7 °F 66% 29.91 in 10.0 mi SSW 6.9 mph - N/A   Clear
12:15 PM 91.0 °F 106.2 °F 78.1 °F 66% 29.91 in 10.0 mi SSW 8.1 mph - N/A   Clear
12:35 PM 91.9 °F 107.3 °F 78.1 °F 64% 29.91 in 10.0 mi SSW 8.1 mph - N/A   Clear
12:55 PM 92.5 °F 108.2 °F 78.3 °F 63% 29.91 in 10.0 mi SW 5.8 mph - N/A   Clear
1:15 PM 93.0 °F 108.9 °F 78.3 °F 62% 29.90 in 10.0 mi SW 9.2 mph - N/A   Clear
1:35 PM 93.2 °F 111.1 °F 79.3 °F 64% 29.89 in 10.0 mi South 8.1 mph - N/A   Clear
1:55 PM 93.2 °F 110.2 °F 79.0 °F 63% 29.89 in 10.0 mi South 12.7 mph 19.6 mph N/A   Clear
2:15 PM 93.6 °F 110.5 °F 79.0 °F 62% 29.89 in 10.0 mi SSW 8.1 mph 19.6 mph N/A   Clear
2:35 PM 93.9 °F 111.6 °F 79.2 °F 62% 29.89 in 10.0 mi South 11.5 mph - N/A   Clear
2:55 PM 93.6 °F 112.2 °F 79.7 °F 64% 29.88 in 10.0 mi South 11.5 mph 17.3 mph N/A   Scattered Clouds
3:15 PM 94.3 °F 112.7 °F 79.5 °F 62% 29.88 in 10.0 mi SSW 9.2 mph 17.3 mph N/A   Scattered Clouds
3:35 PM 93.9 °F 112.4 °F 79.7 °F 63% 29.86 in 10.0 mi South 11.5 mph 17.3 mph N/A   Clear
3:55 PM 93.7 °F 112.7 °F 80.1 °F 64% 29.86 in 10.0 mi SSW 6.9 mph 18.4 mph N/A   Clear
4:15 PM 93.9 °F 111.6 °F 79.3 °F 62% 29.86 in 10.0 mi SSW 8.1 mph 20.7 mph N/A   Clear
4:35 PM 93.9 °F 111.6 °F 79.3 °F 62% 29.86 in 10.0 mi South 10.4 mph 19.6 mph N/A   Clear
4:55 PM 94.1 °F 110.5 °F 78.4 °F 60% 29.85 in 10.0 mi South 11.5 mph 19.6 mph N/A   Clear
5:15 PM 93.6 °F 111.3 °F 79.2 °F 63% 29.85 in 10.0 mi SSW 9.2 mph 18.4 mph N/A   Clear
5:35 PM 93.6 °F 110.5 °F 79.0 °F 62% 29.86 in 10.0 mi SSW 9.2 mph 17.3 mph N/A   Clear
5:55 PM 93.2 °F 109.5 °F 78.6 °F 62% 29.85 in 10.0 mi South 6.9 mph 16.1 mph N/A   Clear
6:15 PM 93.2 °F 108.7 °F 77.7 °F 61% 29.85 in 10.0 mi South 6.9 mph - N/A   Clear
6:35 PM 92.5 °F 108.2 °F 78.3 °F 63% 29.85 in 10.0 mi SSW 4.6 mph - N/A   Clear
6:55 PM 91.8 °F 108.3 °F 78.8 °F 66% 29.85 in 10.0 mi South 9.2 mph - N/A   Clear
7:15 PM 90.5 °F 107.4 °F 79.5 °F 70% 29.85 in 10.0 mi South 9.2 mph 17.3 mph N/A   Clear
7:35 PM 89.6 °F 105.4 °F 79.0 °F 71% 29.84 in 10.0 mi South 9.2 mph - N/A   Clear
7:55 PM 88.3 °F 104.2 °F 79.3 °F 75% 29.84 in 10.0 mi South 9.2 mph - N/A   Clear
8:15 PM 87.4 °F 102.0 °F 79.0 °F 76% 29.84 in 10.0 mi South 9.2 mph - N/A   Clear
8:35 PM 86.9 °F 100.4 °F 78.4 °F 76% 29.84 in 10.0 mi South 8.1 mph - N/A   Clear
8:55 PM 86.2 °F 98.3 °F 77.9 °F 76% 29.84 in 10.0 mi South 6.9 mph - N/A   Clear
9:15 PM 85.3 °F 96.7 °F 77.7 °F 78% 29.85 in 10.0 mi South 8.1 mph - N/A   Clear
9:35 PM 84.6 °F 95.5 °F 77.9 °F 80% 29.86 in 10.0 mi South 6.9 mph - N/A   Clear
9:55 PM 83.8 °F 94.7 °F 78.1 °F 83% 29.88 in 10.0 mi South 5.8 mph - N/A   Clear
10:15 PM 83.5 °F 94.0 °F 78.1 °F 84% 29.89 in 10.0 mi South 5.8 mph - N/A   Clear
10:35 PM 83.1 °F 92.9 °F 77.9 °F 84% 29.89 in 10.0 mi South 5.8 mph - N/A   Clear
10:55 PM 83.3 °F 93.5 °F 77.9 °F 84% 29.90 in 10.0 mi South 6.9 mph - N/A   Clear
11:15 PM 82.8 °F 91.9 °F 77.4 °F 84% 29.90 in 10.0 mi South 8.1 mph - N/A   Clear
11:35 PM 82.9 °F 92.1 °F 77.4 °F 83% 29.90 in 10.0 mi South 6.9 mph - N/A   Clear
11:55 PM 82.6 °F 91.4 °F 77.2 °F 84% 29.91 in 10.0 mi South 6.9 mph - N/A   Clear